sensor_id;sensor_type;location;lat;lon;timestamp;temperature;humidity
51801;DHT22;37855;53.204;6.568;2023-04-01T00:01:03;10.70;79.50
51801;DHT22;37855;53.204;6.568;2023-04-01T00:03:31;10.70;79.50
51801;DHT22;37855;53.204;6.568;2023-04-01T00:05:58;10.70;79.50
51801;DHT22;37855;53.204;6.568;2023-04-01T00:08:28;10.70;79.60
51801;DHT22;37855;53.204;6.568;2023-04-01T00:10:54;10.70;79.60
51801;DHT22;37855;53.204;6.568;2023-04-01T00:13:20;10.70;79.60
51801;DHT22;37855;53.204;6.568;2023-04-01T00:15:47;10.70;79.60
51801;DHT22;37855;53.204;6.568;2023-04-01T00:18:13;10.70;79.70
51801;DHT22;37855;53.204;6.568;2023-04-01T00:20:46;10.70;79.70
51801;DHT22;37855;53.204;6.568;2023-04-01T00:23:13;10.70;79.70
51801;DHT22;37855;53.204;6.568;2023-04-01T00:25:39;10.70;79.80
51801;DHT22;37855;53.204;6.568;2023-04-01T00:28:08;10.70;79.80
51801;DHT22;37855;53.204;6.568;2023-04-01T00:30:35;10.70;79.80
51801;DHT22;37855;53.204;6.568;2023-04-01T00:33:03;10.70;79.90
51801;DHT22;37855;53.204;6.568;2023-04-01T00:35:30;10.70;79.90
51801;DHT22;37855;53.204;6.568;2023-04-01T00:37:59;10.70;79.90
51801;DHT22;37855;53.204;6.568;2023-04-01T00:40:45;10.60;80.00
51801;DHT22;37855;53.204;6.568;2023-04-01T00:43:19;10.60;79.90
51801;DHT22;37855;53.204;6.568;2023-04-01T00:45:47;10.50;80.20
51801;DHT22;37855;53.204;6.568;2023-04-01T00:48:20;10.40;80.40
51801;DHT22;37855;53.204;6.568;2023-04-01T00:51:09;10.40;80.20
51801;DHT22;37855;53.204;6.568;2023-04-01T00:53:40;10.40;80.10
51801;DHT22;37855;53.204;6.568;2023-04-01T00:56:21;10.50;80.10
51801;DHT22;37855;53.204;6.568;2023-04-01T00:58:51;10.50;80.20
51801;DHT22;37855;53.204;6.568;2023-04-01T01:01:21;10.50;80.20
51801;DHT22;37855;53.204;6.568;2023-04-01T01:03:50;10.60;80.20
51801;DHT22;37855;53.204;6.568;2023-04-01T01:09:30;10.60;80.20
51801;DHT22;37855;53.204;6.568;2023-04-01T01:12:03;10.60;80.30
51801;DHT22;37855;53.204;6.568;2023-04-01T01:17:22;10.50;80.40
51801;DHT22;37855;53.204;6.568;2023-04-01T01:20:16;10.40;80.60
51801;DHT22;37855;53.204;6.568;2023-04-01T01:32:07;10.30;81.10
51801;DHT22;37855;53.204;6.568;2023-04-01T01:35:03;10.30;81.10
51801;DHT22;37855;53.204;6.568;2023-04-01T01:37:36;10.20;81.30
51801;DHT22;37855;53.204;6.568;2023-04-01T01:43:33;10.10;81.80
51801;DHT22;37855;53.204;6.568;2023-04-01T01:46:06;10.10;81.50
51801;DHT22;37855;53.204;6.568;2023-04-01T01:48:39;10.10;81.60
51801;DHT22;37855;53.204;6.568;2023-04-01T01:51:15;10.10;81.90
51801;DHT22;37855;53.204;6.568;2023-04-01T01:53:46;10.10;82.00
51801;DHT22;37855;53.204;6.568;2023-04-01T01:56:12;10.00;82.00
51801;DHT22;37855;53.204;6.568;2023-04-01T01:58:45;10.00;82.40
51801;DHT22;37855;53.204;6.568;2023-04-01T02:01:33;10.00;82.30
51801;DHT22;37855;53.204;6.568;2023-04-01T02:04:01;10.00;82.40
51801;DHT22;37855;53.204;6.568;2023-04-01T02:06:31;9.90;82.70
51801;DHT22;37855;53.204;6.568;2023-04-01T02:09:02;9.90;82.40
51801;DHT22;37855;53.204;6.568;2023-04-01T02:11:33;9.90;82.70
51801;DHT22;37855;53.204;6.568;2023-04-01T02:14:10;9.90;82.50
51801;DHT22;37855;53.204;6.568;2023-04-01T02:16:49;9.90;82.60
51801;DHT22;37855;53.204;6.568;2023-04-01T02:19:16;9.80;82.90
51801;DHT22;37855;53.204;6.568;2023-04-01T02:21:50;9.80;83.00
51801;DHT22;37855;53.204;6.568;2023-04-01T02:24:19;9.80;82.70
51801;DHT22;37855;53.204;6.568;2023-04-01T02:26:49;9.90;82.60
51801;DHT22;37855;53.204;6.568;2023-04-01T02:29:21;9.90;82.50
51801;DHT22;37855;53.204;6.568;2023-04-01T02:31:48;9.90;82.50
51801;DHT22;37855;53.204;6.568;2023-04-01T02:34:15;9.90;82.40
51801;DHT22;37855;53.204;6.568;2023-04-01T02:36:41;9.80;82.60
51801;DHT22;37855;53.204;6.568;2023-04-01T02:39:08;9.90;82.40
51801;DHT22;37855;53.204;6.568;2023-04-01T02:41:41;9.90;82.40
51801;DHT22;37855;53.204;6.568;2023-04-01T02:44:08;9.90;82.40
51801;DHT22;37855;53.204;6.568;2023-04-01T02:46:48;9.90;82.50
51801;DHT22;37855;53.204;6.568;2023-04-01T02:49:14;9.90;82.50
51801;DHT22;37855;53.204;6.568;2023-04-01T02:51:49;9.90;82.50
51801;DHT22;37855;53.204;6.568;2023-04-01T02:54:15;9.90;82.50
51801;DHT22;37855;53.204;6.568;2023-04-01T02:56:41;9.90;82.50
51801;DHT22;37855;53.204;6.568;2023-04-01T02:59:06;9.80;82.60
51801;DHT22;37855;53.204;6.568;2023-04-01T03:01:38;9.80;82.90
51801;DHT22;37855;53.204;6.568;2023-04-01T03:04:04;9.80;82.70
51801;DHT22;37855;53.204;6.568;2023-04-01T03:06:31;9.80;82.60
51801;DHT22;37855;53.204;6.568;2023-04-01T03:08:57;9.80;82.50
51801;DHT22;37855;53.204;6.568;2023-04-01T03:11:26;9.80;82.70
51801;DHT22;37855;53.204;6.568;2023-04-01T03:13:52;9.80;82.80
51801;DHT22;37855;53.204;6.568;2023-04-01T03:16:17;9.80;82.80
51801;DHT22;37855;53.204;6.568;2023-04-01T03:18:45;9.80;82.80
51801;DHT22;37855;53.204;6.568;2023-04-01T03:21:16;9.70;82.90
51801;DHT22;37855;53.204;6.568;2023-04-01T03:23:42;9.70;83.10
51801;DHT22;37855;53.204;6.568;2023-04-01T03:26:07;9.70;83.30
51801;DHT22;37855;53.204;6.568;2023-04-01T03:28:33;9.60;83.40
51801;DHT22;37855;53.204;6.568;2023-04-01T03:30:59;9.60;83.30
51801;DHT22;37855;53.204;6.568;2023-04-01T03:33:25;9.60;83.40
51801;DHT22;37855;53.204;6.568;2023-04-01T03:35:51;9.60;83.30
51801;DHT22;37855;53.204;6.568;2023-04-01T03:38:20;9.60;83.40
51801;DHT22;37855;53.204;6.568;2023-04-01T03:40:45;9.60;83.40
51801;DHT22;37855;53.204;6.568;2023-04-01T03:43:11;9.60;83.40
51801;DHT22;37855;53.204;6.568;2023-04-01T03:45:48;9.60;83.50
51801;DHT22;37855;53.204;6.568;2023-04-01T03:48:15;9.60;83.30
51801;DHT22;37855;53.204;6.568;2023-04-01T03:50:41;9.60;83.30
51801;DHT22;37855;53.204;6.568;2023-04-01T03:53:10;9.60;83.40
51801;DHT22;37855;53.204;6.568;2023-04-01T03:55:38;9.60;83.30
51801;DHT22;37855;53.204;6.568;2023-04-01T03:58:08;9.60;83.30
51801;DHT22;37855;53.204;6.568;2023-04-01T04:00:34;9.60;83.40
51801;DHT22;37855;53.204;6.568;2023-04-01T04:03:00;9.60;83.40
51801;DHT22;37855;53.204;6.568;2023-04-01T04:05:47;9.60;83.40
51801;DHT22;37855;53.204;6.568;2023-04-01T04:08:16;9.50;83.40
51801;DHT22;37855;53.204;6.568;2023-04-01T04:10:42;9.60;83.30
51801;DHT22;37855;53.204;6.568;2023-04-01T04:13:11;9.60;83.10
51801;DHT22;37855;53.204;6.568;2023-04-01T04:15:39;9.60;83.30
51801;DHT22;37855;53.204;6.568;2023-04-01T04:18:06;9.60;83.40
51801;DHT22;37855;53.204;6.568;2023-04-01T04:20:33;9.50;83.60
51801;DHT22;37855;53.204;6.568;2023-04-01T04:23:00;9.50;83.50
51801;DHT22;37855;53.204;6.568;2023-04-01T04:25:25;9.50;83.60
51801;DHT22;37855;53.204;6.568;2023-04-01T04:28:07;9.50;83.60
51801;DHT22;37855;53.204;6.568;2023-04-01T04:30:39;9.60;83.60
51801;DHT22;37855;53.204;6.568;2023-04-01T04:33:05;9.60;83.50
51801;DHT22;37855;53.204;6.568;2023-04-01T04:35:50;9.50;83.50
51801;DHT22;37855;53.204;6.568;2023-04-01T04:38:19;9.60;83.40
51801;DHT22;37855;53.204;6.568;2023-04-01T04:40:44;9.50;83.60
51801;DHT22;37855;53.204;6.568;2023-04-01T04:43:13;9.60;83.50
51801;DHT22;37855;53.204;6.568;2023-04-01T04:45:43;9.60;83.60
51801;DHT22;37855;53.204;6.568;2023-04-01T04:48:14;9.60;83.50
51801;DHT22;37855;53.204;6.568;2023-04-01T04:50:44;9.60;83.50
51801;DHT22;37855;53.204;6.568;2023-04-01T04:53:12;9.60;83.40
51801;DHT22;37855;53.204;6.568;2023-04-01T04:55:46;9.60;83.40
51801;DHT22;37855;53.204;6.568;2023-04-01T04:58:15;9.60;83.30
51801;DHT22;37855;53.204;6.568;2023-04-01T05:00:44;9.70;83.30
51801;DHT22;37855;53.204;6.568;2023-04-01T05:03:10;9.60;83.30
51801;DHT22;37855;53.204;6.568;2023-04-01T05:05:36;9.60;83.30
51801;DHT22;37855;53.204;6.568;2023-04-01T05:08:02;9.60;83.30
51801;DHT22;37855;53.204;6.568;2023-04-01T05:10:28;9.60;83.40
51801;DHT22;37855;53.204;6.568;2023-04-01T05:12:55;9.60;83.30
51801;DHT22;37855;53.204;6.568;2023-04-01T05:15:20;9.60;83.50
51801;DHT22;37855;53.204;6.568;2023-04-01T05:17:48;9.60;83.60
51801;DHT22;37855;53.204;6.568;2023-04-01T05:20:13;9.50;83.80
51801;DHT22;37855;53.204;6.568;2023-04-01T05:22:43;9.50;83.80
51801;DHT22;37855;53.204;6.568;2023-04-01T05:25:09;9.60;83.70
51801;DHT22;37855;53.204;6.568;2023-04-01T05:27:35;9.50;84.00
51801;DHT22;37855;53.204;6.568;2023-04-01T05:30:02;9.50;84.10
51801;DHT22;37855;53.204;6.568;2023-04-01T05:32:30;9.50;84.00
51801;DHT22;37855;53.204;6.568;2023-04-01T05:38:21;9.50;83.90
51801;DHT22;37855;53.204;6.568;2023-04-01T05:40:47;9.50;83.80
51801;DHT22;37855;53.204;6.568;2023-04-01T05:43:13;9.60;83.60
51801;DHT22;37855;53.204;6.568;2023-04-01T05:45:40;9.60;83.60
51801;DHT22;37855;53.204;6.568;2023-04-01T05:48:09;9.50;83.60
51801;DHT22;37855;53.204;6.568;2023-04-01T05:50:34;9.50;83.80
51801;DHT22;37855;53.204;6.568;2023-04-01T06:08:35;9.50;84.00
51801;DHT22;37855;53.204;6.568;2023-04-01T06:11:18;9.50;84.30
51801;DHT22;37855;53.204;6.568;2023-04-01T06:54:40;9.80;83.40
51801;DHT22;37855;53.204;6.568;2023-04-01T06:57:34;9.80;83.20
51801;DHT22;37855;53.204;6.568;2023-04-01T07:00:05;9.80;83.30
51801;DHT22;37855;53.204;6.568;2023-04-01T07:02:49;9.80;83.30
51801;DHT22;37855;53.204;6.568;2023-04-01T07:05:22;9.80;83.50
51801;DHT22;37855;53.204;6.568;2023-04-01T07:07:54;9.80;83.50
51801;DHT22;37855;53.204;6.568;2023-04-01T07:10:48;9.80;83.30
51801;DHT22;37855;53.204;6.568;2023-04-01T07:13:36;9.80;83.40
51801;DHT22;37855;53.204;6.568;2023-04-01T07:16:30;9.80;83.40
51801;DHT22;37855;53.204;6.568;2023-04-01T07:22:04;9.80;83.30
51801;DHT22;37855;53.204;6.568;2023-04-01T07:24:36;9.90;83.30
51801;DHT22;37855;53.204;6.568;2023-04-01T07:27:08;9.90;83.00
51801;DHT22;37855;53.204;6.568;2023-04-01T07:29:34;9.90;83.00
51801;DHT22;37855;53.204;6.568;2023-04-01T07:32:23;9.90;83.10
51801;DHT22;37855;53.204;6.568;2023-04-01T07:37:28;10.10;82.50
51801;DHT22;37855;53.204;6.568;2023-04-01T07:45:36;10.10;82.40
51801;DHT22;37855;53.204;6.568;2023-04-01T07:48:09;10.10;82.30
51801;DHT22;37855;53.204;6.568;2023-04-01T07:51:02;10.10;82.30
51801;DHT22;37855;53.204;6.568;2023-04-01T08:07:28;10.10;82.10
51801;DHT22;37855;53.204;6.568;2023-04-01T08:10:08;10.10;82.00
51801;DHT22;37855;53.204;6.568;2023-04-01T08:25:28;10.40;81.70
51801;DHT22;37855;53.204;6.568;2023-04-01T08:31:03;10.40;81.60
51801;DHT22;37855;53.204;6.568;2023-04-01T08:36:19;10.50;80.50
51801;DHT22;37855;53.204;6.568;2023-04-01T08:38:59;10.60;80.10
51801;DHT22;37855;53.204;6.568;2023-04-01T08:42:22;10.60;80.00
51801;DHT22;37855;53.204;6.568;2023-04-01T08:52:05;10.80;80.10
51801;DHT22;37855;53.204;6.568;2023-04-01T09:05:34;10.90;80.10
51801;DHT22;37855;53.204;6.568;2023-04-01T09:08:36;10.80;79.50
51801;DHT22;37855;53.204;6.568;2023-04-01T09:36:36;9.60;80.50
51801;DHT22;37855;53.204;6.568;2023-04-01T09:39:18;9.60;80.70
51801;DHT22;37855;53.204;6.568;2023-04-01T09:42:23;9.70;80.40
51801;DHT22;37855;53.204;6.568;2023-04-01T09:45:09;9.70;80.60
51801;DHT22;37855;53.204;6.568;2023-04-01T10:09:23;9.50;81.00
51801;DHT22;37855;53.204;6.568;2023-04-01T10:46:24;9.50;79.70
51801;DHT22;37855;53.204;6.568;2023-04-01T11:00:20;9.50;79.00
51801;DHT22;37855;53.204;6.568;2023-04-01T11:19:54;9.10;79.60
51801;DHT22;37855;53.204;6.568;2023-04-01T11:22:58;9.10;79.30
51801;DHT22;37855;53.204;6.568;2023-04-01T11:25:55;9.10;79.70
51801;DHT22;37855;53.204;6.568;2023-04-01T11:31:25;9.20;79.20
51801;DHT22;37855;53.204;6.568;2023-04-01T11:51:36;9.50;78.00
51801;DHT22;37855;53.204;6.568;2023-04-01T11:57:35;9.40;78.60
51801;DHT22;37855;53.204;6.568;2023-04-01T12:19:17;9.60;77.40
51801;DHT22;37855;53.204;6.568;2023-04-01T12:22:10;9.50;77.50
51801;DHT22;37855;53.204;6.568;2023-04-01T12:28:29;9.50;77.50
51801;DHT22;37855;53.204;6.568;2023-04-01T12:30:38;9.40;77.70
51801;DHT22;37855;53.204;6.568;2023-04-01T12:44:48;9.50;77.00
51801;DHT22;37855;53.204;6.568;2023-04-01T12:50:16;9.50;76.60
51801;DHT22;37855;53.204;6.568;2023-04-01T12:53:17;9.50;76.70
51801;DHT22;37855;53.204;6.568;2023-04-01T12:55:50;9.50;76.70
51801;DHT22;37855;53.204;6.568;2023-04-01T12:58:39;9.50;77.10
51801;DHT22;37855;53.204;6.568;2023-04-01T13:01:27;9.50;77.00
51801;DHT22;37855;53.204;6.568;2023-04-01T13:10:13;9.50;77.50
51801;DHT22;37855;53.204;6.568;2023-04-01T13:25:46;9.30;77.80
51801;DHT22;37855;53.204;6.568;2023-04-01T13:28:20;9.20;77.20
51801;DHT22;37855;53.204;6.568;2023-04-01T13:31:00;9.30;76.80
51801;DHT22;37855;53.204;6.568;2023-04-01T13:34:00;9.30;76.80
51801;DHT22;37855;53.204;6.568;2023-04-01T13:44:54;9.40;76.00
51801;DHT22;37855;53.204;6.568;2023-04-01T14:00:50;9.30;76.20
51801;DHT22;37855;53.204;6.568;2023-04-01T14:12:02;9.10;75.30
51801;DHT22;37855;53.204;6.568;2023-04-01T14:14:54;9.10;75.90
51801;DHT22;37855;53.204;6.568;2023-04-01T14:25:50;9.20;75.00
51801;DHT22;37855;53.204;6.568;2023-04-01T14:44:15;8.70;75.70
51801;DHT22;37855;53.204;6.568;2023-04-01T14:46:56;8.70;76.00
51801;DHT22;37855;53.204;6.568;2023-04-01T14:49:43;8.70;76.20
51801;DHT22;37855;53.204;6.568;2023-04-01T14:52:31;8.70;75.90
51801;DHT22;37855;53.204;6.568;2023-04-01T15:03:37;8.70;74.60
51801;DHT22;37855;53.204;6.568;2023-04-01T15:17:38;8.30;75.70
51801;DHT22;37855;53.204;6.568;2023-04-01T15:31:15;8.10;75.30
51801;DHT22;37855;53.204;6.568;2023-04-01T15:37:08;8.00;75.60
51801;DHT22;37855;53.204;6.568;2023-04-01T15:48:40;7.80;75.50
51801;DHT22;37855;53.204;6.568;2023-04-01T15:57:18;7.90;75.00
51801;DHT22;37855;53.204;6.568;2023-04-01T16:19:22;7.60;75.40
51801;DHT22;37855;53.204;6.568;2023-04-01T16:22:22;7.60;75.60
51801;DHT22;37855;53.204;6.568;2023-04-01T16:25:17;7.60;75.30
51801;DHT22;37855;53.204;6.568;2023-04-01T16:27:56;7.40;75.50
51801;DHT22;37855;53.204;6.568;2023-04-01T16:30:57;7.30;75.90
51801;DHT22;37855;53.204;6.568;2023-04-01T16:36:26;7.30;75.90
51801;DHT22;37855;53.204;6.568;2023-04-01T16:41:41;7.20;75.70
51801;DHT22;37855;53.204;6.568;2023-04-01T16:44:26;7.30;75.80
51801;DHT22;37855;53.204;6.568;2023-04-01T16:46:56;7.20;75.90
51801;DHT22;37855;53.204;6.568;2023-04-01T16:49:52;7.20;76.10
51801;DHT22;37855;53.204;6.568;2023-04-01T16:56:30;7.10;75.90
51801;DHT22;37855;53.204;6.568;2023-04-01T17:09:47;7.00;75.70
51801;DHT22;37855;53.204;6.568;2023-04-01T17:20:43;7.30;75.20
51801;DHT22;37855;53.204;6.568;2023-04-01T17:23:32;7.20;74.90
51801;DHT22;37855;53.204;6.568;2023-04-01T17:28:50;7.00;75.20
51801;DHT22;37855;53.204;6.568;2023-04-01T17:31:41;7.00;75.20
51801;DHT22;37855;53.204;6.568;2023-04-01T17:42:58;6.90;75.50
51801;DHT22;37855;53.204;6.568;2023-04-01T17:45:30;6.80;75.70
51801;DHT22;37855;53.204;6.568;2023-04-01T17:54:15;6.80;76.00
51801;DHT22;37855;53.204;6.568;2023-04-01T17:59:43;6.80;76.70
51801;DHT22;37855;53.204;6.568;2023-04-01T18:30:30;6.50;75.90
51801;DHT22;37855;53.204;6.568;2023-04-01T18:36:22;6.40;75.80
51801;DHT22;37855;53.204;6.568;2023-04-01T18:39:00;6.40;75.50
51801;DHT22;37855;53.204;6.568;2023-04-01T18:44:27;6.30;75.90
51801;DHT22;37855;53.204;6.568;2023-04-01T18:50:21;6.30;75.30
51801;DHT22;37855;53.204;6.568;2023-04-01T18:52:53;6.30;75.40
51801;DHT22;37855;53.204;6.568;2023-04-01T18:58:11;6.10;75.90
51801;DHT22;37855;53.204;6.568;2023-04-01T19:01:22;6.10;75.80
51801;DHT22;37855;53.204;6.568;2023-04-01T19:04:17;6.20;75.50
51801;DHT22;37855;53.204;6.568;2023-04-01T19:06:51;6.10;75.70
51801;DHT22;37855;53.204;6.568;2023-04-01T19:09:27;6.10;75.60
51801;DHT22;37855;53.204;6.568;2023-04-01T19:11:59;6.10;75.40
51801;DHT22;37855;53.204;6.568;2023-04-01T19:20:30;6.10;75.10
51801;DHT22;37855;53.204;6.568;2023-04-01T19:39:38;5.80;75.30
51801;DHT22;37855;53.204;6.568;2023-04-01T19:42:29;5.80;75.20
51801;DHT22;37855;53.204;6.568;2023-04-01T19:50:38;5.70;74.80
51801;DHT22;37855;53.204;6.568;2023-04-01T19:53:27;5.60;75.50
51801;DHT22;37855;53.204;6.568;2023-04-01T19:56:18;5.60;75.70
51801;DHT22;37855;53.204;6.568;2023-04-01T20:01:31;5.70;75.20
51801;DHT22;37855;53.204;6.568;2023-04-01T20:04:10;5.70;74.90
51801;DHT22;37855;53.204;6.568;2023-04-01T20:07:03;5.60;74.90
51801;DHT22;37855;53.204;6.568;2023-04-01T20:15:33;5.50;74.70
51801;DHT22;37855;53.204;6.568;2023-04-01T20:20:59;5.40;75.00
51801;DHT22;37855;53.204;6.568;2023-04-01T20:26:29;5.50;74.90
51801;DHT22;37855;53.204;6.568;2023-04-01T20:51:37;5.50;73.90
51801;DHT22;37855;53.204;6.568;2023-04-01T21:23:20;5.20;73.80
51801;DHT22;37855;53.204;6.568;2023-04-01T21:26:10;5.20;73.80
51801;DHT22;37855;53.204;6.568;2023-04-01T21:32:25;5.10;73.80
51801;DHT22;37855;53.204;6.568;2023-04-01T21:41:12;5.10;73.00
51801;DHT22;37855;53.204;6.568;2023-04-01T21:54:39;5.00;72.60
51801;DHT22;37855;53.204;6.568;2023-04-01T21:57:34;4.90;72.90
51801;DHT22;37855;53.204;6.568;2023-04-01T22:03:55;5.00;73.00
51801;DHT22;37855;53.204;6.568;2023-04-01T22:06:51;5.00;73.10
51801;DHT22;37855;53.204;6.568;2023-04-01T22:09:41;4.90;72.90
51801;DHT22;37855;53.204;6.568;2023-04-01T22:12:29;5.00;73.20
51801;DHT22;37855;53.204;6.568;2023-04-01T22:26:31;4.90;71.40
51801;DHT22;37855;53.204;6.568;2023-04-01T22:31:52;4.80;71.90
51801;DHT22;37855;53.204;6.568;2023-04-01T22:34:43;4.90;72.30
51801;DHT22;37855;53.204;6.568;2023-04-01T22:42:44;4.90;72.60
51801;DHT22;37855;53.204;6.568;2023-04-01T22:45:30;4.90;72.70
51801;DHT22;37855;53.204;6.568;2023-04-01T22:48:04;4.90;72.30
51801;DHT22;37855;53.204;6.568;2023-04-01T22:53:53;4.80;72.30
51801;DHT22;37855;53.204;6.568;2023-04-01T22:56:29;4.80;71.90
51801;DHT22;37855;53.204;6.568;2023-04-01T23:01:56;4.90;71.60
51801;DHT22;37855;53.204;6.568;2023-04-01T23:04:26;4.70;71.80
51801;DHT22;37855;53.204;6.568;2023-04-01T23:07:00;4.70;71.40
51801;DHT22;37855;53.204;6.568;2023-04-01T23:09:34;4.60;71.00
51801;DHT22;37855;53.204;6.568;2023-04-01T23:12:10;4.50;71.40
51801;DHT22;37855;53.204;6.568;2023-04-01T23:14:46;4.50;71.40
51801;DHT22;37855;53.204;6.568;2023-04-01T23:17:38;4.40;72.00
51801;DHT22;37855;53.204;6.568;2023-04-01T23:20:27;4.40;71.60
51801;DHT22;37855;53.204;6.568;2023-04-01T23:25:36;4.40;70.60
51801;DHT22;37855;53.204;6.568;2023-04-01T23:38:19;4.10;71.20
51801;DHT22;37855;53.204;6.568;2023-04-01T23:40:47;4.20;70.80
51801;DHT22;37855;53.204;6.568;2023-04-01T23:43:30;4.10;70.70
51801;DHT22;37855;53.204;6.568;2023-04-01T23:46:02;4.00;71.30
51801;DHT22;37855;53.204;6.568;2023-04-01T23:48:33;4.00;71.30
51801;DHT22;37855;53.204;6.568;2023-04-01T23:51:04;4.00;71.60
51801;DHT22;37855;53.204;6.568;2023-04-01T23:53:44;4.00;71.70
51801;DHT22;37855;53.204;6.568;2023-04-01T23:56:10;3.90;71.90
51801;DHT22;37855;53.204;6.568;2023-04-01T23:58:44;3.90;71.50
